Flight Track Log - Related Links

Times and Time Zones

All times are in EDT time to prevent confusion due to time zone crossing. See the BMJ70 flight status page for this flight to view local times or setup timezone preferences in your user account.


Time Position Orientation Groundspeed Altitude Reporting Facility
EDT Latitude Longitude Course Direction KTS MPH feet Rate Location/Type
Tue 09:32:14 AM 47.2647 -93.4992 11° North 113 130 3,700  Level Minneapolis Center
Tue 09:33:00 AM 47.4158 -93.4644 North  Level FlightAware Approximate
Tue 09:33:15 AM 47.2961 -93.4867 15° North 113 130 4,900  Level Minneapolis Center
Tue 09:34:00 AM 47.4594 -93.4615 North  Level FlightAware Approximate
Tue 09:34:17 AM 47.3292 -93.4958 349° North 115 132 6,000  Level Minneapolis Center
Tue 09:35:00 AM 47.5029 -93.4585 North  Level FlightAware Approximate
Tue 09:35:18 AM 47.3692 -93.5022 354° North 130 150 6,100  Level Minneapolis Center
Tue 09:36:00 AM 47.5465 -93.4555 North  Level FlightAware Approximate
Tue 09:36:19 AM 47.4164 -93.5083 355° North 153 176 6,100  Level Minneapolis Center
Tue 09:37:21 AM 47.4639 -93.5175 353° North 164 189 6,100 -49 Level Minneapolis Center
Tue 09:38:22 AM 47.5114 -93.5233 355° North 167 192 6,000 -49 Descending Minneapolis Center
Tue 09:39:23 AM 47.5592 -93.5211 North 168 193 6,000  Level Minneapolis Center
Tue 09:40:25 AM 47.6064 -93.5211 360° North 168 193 6,000  Level Minneapolis Center
Tue 09:41:26 AM 47.6536 -93.5208 360° North 168 193 6,000  Level Minneapolis Center
Tue 09:42:27 AM 47.7006 -93.5214 360° North 168 193 6,000  Level Minneapolis Center
Tue 09:43:29 AM 47.7561 -93.5197 North 168 193 6,000  Level Minneapolis Center
Tue 09:44:30 AM 47.8036 -93.5208 359° North 168 193 6,000  Level Minneapolis Center
Tue 09:45:31 AM 47.8508 -93.5208 360° North 168 193 6,000 49 Level Minneapolis Center
Tue 09:46:33 AM 47.8975 -93.5169 North 168 193 6,100 49 Climbing Minneapolis Center
Tue 09:47:34 AM 47.9447 -93.5108 North 168 193 6,100  Level Minneapolis Center
Tue 09:48:35 AM 47.9914 -93.5050 North 168 193 6,100  Level Minneapolis Center
Tue 09:49:37 AM 48.0375 -93.4969 North 168 193 6,100  Level Minneapolis Center
Tue 09:50:38 AM 48.0842 -93.4839 11° North 168 193 6,100 -148 Level Minneapolis Center
Tue 09:51:39 AM 48.1308 -93.4681 13° North 168 193 5,800 -443 Descending Minneapolis Center
Tue 09:52:40 AM 48.1908 -93.4536 North 175 201 5,200 -585 Descending Minneapolis Center
Tue 09:53:42 AM 48.2381 -93.4486 North 176 203 4,600 -585 Descending Minneapolis Center
Tue 09:54:43 AM 48.2833 -93.4353 11° North 172 198 4,000 -295 Descending Minneapolis Center
Tue 09:55:44 AM 48.3275 -93.4200 13° North 171 197 4,000 -98 Level Minneapolis Center
Tue 09:56:46 AM 48.3681 -93.4056 13° North 161 185 3,800 -244 Descending Minneapolis Center
Tue 09:57:47 AM 48.4122 -93.3964 North 158 182 3,500 -295 Descending Minneapolis Center
Tue 09:59:00 AM 48.4653 -93.3978 359° North  Level FlightAware Approximate

Login

Don't have an account? Register now (free) for customized features, flight alerts, and more!